createdAt,value
2019-05-26T00:01:20.912Z,4.87
2019-05-26T00:03:48.266Z,4.80
2019-05-26T00:06:15.549Z,4.97
2019-05-26T00:08:42.859Z,4.90
2019-05-26T00:11:10.152Z,4.95
2019-05-26T00:13:37.425Z,5.15
2019-05-26T00:16:04.675Z,4.95
2019-05-26T00:18:33.495Z,5.30
2019-05-26T00:21:01.066Z,4.75
2019-05-26T00:23:28.339Z,5.60
2019-05-26T00:25:55.670Z,5.45
2019-05-26T00:28:22.941Z,5.80
2019-05-26T00:30:50.230Z,5.58
2019-05-26T00:33:17.528Z,5.83
2019-05-26T00:35:44.772Z,5.60
2019-05-26T00:38:12.058Z,5.67
2019-05-26T00:40:39.331Z,5.28
2019-05-26T00:43:06.607Z,5.70
2019-05-26T00:45:33.922Z,5.50
2019-05-26T00:48:01.188Z,5.28
2019-05-26T00:50:28.539Z,5.55
2019-05-26T00:52:56.768Z,5.10
2019-05-26T00:55:24.234Z,4.55
2019-05-26T00:57:51.568Z,4.53
2019-05-26T01:00:37.114Z,4.45
2019-05-26T01:03:04.392Z,4.50
2019-05-26T01:05:32.012Z,4.55
2019-05-26T01:08:06.233Z,4.37
2019-05-26T01:10:28.577Z,5.00
2019-05-26T01:12:55.854Z,4.75
2019-05-26T01:15:23.098Z,5.10
2019-05-26T01:17:50.376Z,4.95
2019-05-26T01:20:18.031Z,4.75
2019-05-26T01:22:45.276Z,4.47
2019-05-26T01:25:12.873Z,4.53
2019-05-26T01:27:40.308Z,4.97
2019-05-26T01:30:08.460Z,5.40
2019-05-26T01:32:35.750Z,4.70
2019-05-26T01:35:03.598Z,4.37
2019-05-26T01:37:31.264Z,4.50
2019-05-26T01:39:58.701Z,4.62
2019-05-26T01:42:25.972Z,4.10
2019-05-26T01:44:53.265Z,4.42
2019-05-26T01:47:20.562Z,4.62
2019-05-26T01:49:47.753Z,4.65
2019-05-26T01:52:14.992Z,4.42
2019-05-26T01:54:42.281Z,4.20
2019-05-26T01:57:09.536Z,4.67
2019-05-26T01:59:36.859Z,4.65
2019-05-26T02:02:04.102Z,4.50
2019-05-26T02:04:31.419Z,4.60
2019-05-26T02:06:58.772Z,4.55
2019-05-26T02:09:26.024Z,4.60
2019-05-26T02:11:53.282Z,4.47
2019-05-26T02:14:20.528Z,4.15
2019-05-26T02:16:47.797Z,4.10
2019-05-26T02:19:15.415Z,4.15
2019-05-26T02:21:42.766Z,4.12
2019-05-26T02:24:10.063Z,4.58
2019-05-26T02:26:37.344Z,4.10
2019-05-26T02:29:04.620Z,4.33
2019-05-26T02:31:31.904Z,4.60
2019-05-26T02:33:59.412Z,4.10
2019-05-26T02:36:26.735Z,4.65
2019-05-26T02:39:02.081Z,4.20
2019-05-26T02:41:23.263Z,4.12
2019-05-26T02:43:50.601Z,4.62
2019-05-26T02:46:17.898Z,4.60
2019-05-26T02:48:45.145Z,4.20
2019-05-26T02:51:12.391Z,4.72
2019-05-26T02:53:39.666Z,3.85
2019-05-26T02:56:07.229Z,4.47
2019-05-26T02:58:34.504Z,4.60
2019-05-26T03:01:02.017Z,4.70
2019-05-26T03:03:29.252Z,4.47
2019-05-26T03:05:57.365Z,4.50
2019-05-26T03:08:25.221Z,4.60
2019-05-26T03:10:53.427Z,4.90
2019-05-26T03:13:20.731Z,4.87
2019-05-26T03:15:48.008Z,5.12
2019-05-26T03:18:16.078Z,5.15
2019-05-26T03:20:44.060Z,5.37
2019-05-26T03:23:11.280Z,4.97
2019-05-26T03:25:38.767Z,5.00
2019-05-26T03:28:06.138Z,5.05
2019-05-26T03:30:33.464Z,5.40
2019-05-26T03:33:00.742Z,5.60
2019-05-26T03:35:28.069Z,5.15
2019-05-26T03:37:55.357Z,5.05
2019-05-26T03:40:22.621Z,5.10
2019-05-26T03:42:49.933Z,5.20
2019-05-26T03:45:23.424Z,5.37
2019-05-26T03:47:50.714Z,5.10
2019-05-26T03:50:18.059Z,5.90
2019-05-26T03:52:45.402Z,6.00
2019-05-26T03:55:12.853Z,5.45
2019-05-26T03:57:40.081Z,5.22
2019-05-26T04:00:07.790Z,5.72
2019-05-26T04:02:35.077Z,5.78
2019-05-26T04:05:02.884Z,5.47
2019-05-26T04:07:30.147Z,5.60
2019-05-26T04:10:04.636Z,6.37
2019-05-26T04:12:26.864Z,6.28
2019-05-26T04:14:54.160Z,5.70
2019-05-26T04:17:21.425Z,6.00
2019-05-26T04:19:48.741Z,6.28
2019-05-26T04:22:16.066Z,6.65
2019-05-26T04:24:43.345Z,5.92
2019-05-26T04:27:10.598Z,5.62
2019-05-26T04:29:37.881Z,5.92
2019-05-26T04:32:05.119Z,6.53
2019-05-26T04:34:32.649Z,6.53
2019-05-26T04:36:59.999Z,7.10
2019-05-26T04:39:27.241Z,7.12
2019-05-26T04:41:54.541Z,6.62
2019-05-26T04:44:21.794Z,7.50
2019-05-26T04:46:49.084Z,7.65
2019-05-26T04:49:16.400Z,7.22
2019-05-26T04:51:43.676Z,7.37
2019-05-26T04:54:10.952Z,7.65
2019-05-26T04:56:38.241Z,7.78
2019-05-26T04:59:05.488Z,7.17
2019-05-26T05:01:32.772Z,7.78
2019-05-26T05:04:00.019Z,7.72
2019-05-26T05:06:27.298Z,8.05
2019-05-26T05:08:54.586Z,7.87
2019-05-26T05:11:21.862Z,7.67
2019-05-26T05:13:49.117Z,8.55
2019-05-26T05:16:16.396Z,8.60
2019-05-26T05:18:43.634Z,8.83
2019-05-26T05:21:10.904Z,8.75
2019-05-26T05:23:38.160Z,8.45
2019-05-26T05:26:05.436Z,9.15
2019-05-26T05:28:32.703Z,8.25
2019-05-26T05:30:59.988Z,7.83
2019-05-26T05:33:27.261Z,7.67
2019-05-26T05:35:54.524Z,7.97
2019-05-26T05:38:21.752Z,7.60
2019-05-26T05:40:59.032Z,7.85
2019-05-26T05:43:18.218Z,8.25
2019-05-26T05:45:45.500Z,8.10
2019-05-26T05:48:12.768Z,8.55
2019-05-26T05:50:40.036Z,7.70
2019-05-26T05:53:07.315Z,7.83
2019-05-26T05:55:34.546Z,8.05
2019-05-26T05:58:01.862Z,8.05
2019-05-26T06:00:29.144Z,8.55
2019-05-26T06:02:56.417Z,8.50
2019-05-26T06:05:23.705Z,8.43
2019-05-26T06:07:50.959Z,8.20
2019-05-26T06:10:18.277Z,8.78
2019-05-26T06:12:45.531Z,9.50
2019-05-26T06:15:15.386Z,9.08
2019-05-26T06:17:42.514Z,10.15
2019-05-26T06:20:10.391Z,10.43
2019-05-26T06:22:37.944Z,9.08
2019-05-26T06:25:05.722Z,10.05
2019-05-26T06:27:33.037Z,9.90
2019-05-26T06:30:00.326Z,9.05
2019-05-26T06:32:27.613Z,9.65
2019-05-26T06:34:54.946Z,8.55
2019-05-26T06:37:22.182Z,8.85
2019-05-26T06:39:49.461Z,8.70
2019-05-26T06:42:16.724Z,8.98
2019-05-26T06:44:52.983Z,9.60
2019-05-26T06:47:13.162Z,9.75
2019-05-26T06:49:40.417Z,9.78
2019-05-26T06:52:07.718Z,9.55
2019-05-26T06:54:34.984Z,9.65
2019-05-26T06:57:02.236Z,9.60
2019-05-26T06:59:29.569Z,10.65
2019-05-26T07:01:56.813Z,9.73
2019-05-26T07:04:24.059Z,9.33
2019-05-26T07:06:51.374Z,9.43
2019-05-26T07:09:18.733Z,8.98
2019-05-26T07:11:55.620Z,9.85
2019-05-26T07:14:15.207Z,9.95
2019-05-26T07:16:42.443Z,9.93
2019-05-26T07:19:09.744Z,9.43
2019-05-26T07:21:37.373Z,10.20
2019-05-26T07:24:04.704Z,10.68
2019-05-26T07:26:33.251Z,9.68
2019-05-26T07:29:00.783Z,9.53
2019-05-26T07:31:27.976Z,9.63
2019-05-26T07:33:55.459Z,9.38
2019-05-26T07:36:22.835Z,9.23
2019-05-26T07:38:50.130Z,9.00
2019-05-26T07:41:17.479Z,8.98
2019-05-26T07:43:44.772Z,10.43
2019-05-26T07:46:12.121Z,9.68
2019-05-26T07:48:39.484Z,10.18
2019-05-26T07:51:07.101Z,9.75
2019-05-26T07:53:34.413Z,9.70
2019-05-26T07:56:01.721Z,9.45
2019-05-26T07:58:29.037Z,9.43
2019-05-26T08:00:56.569Z,10.03
2019-05-26T08:03:23.870Z,10.15
2019-05-26T08:05:51.144Z,10.72
2019-05-26T08:08:18.472Z,10.65
2019-05-26T08:10:45.742Z,10.88
2019-05-26T08:13:13.040Z,10.65
2019-05-26T08:15:40.392Z,10.63
2019-05-26T08:18:07.887Z,11.25
2019-05-26T08:20:35.144Z,11.20
2019-05-26T08:23:02.520Z,11.10
2019-05-26T08:25:29.796Z,12.20
2019-05-26T08:27:57.499Z,11.73
2019-05-26T08:30:24.802Z,11.60
2019-05-26T08:32:52.175Z,11.73
2019-05-26T08:35:19.418Z,11.43
2019-05-26T08:37:46.995Z,9.95
2019-05-26T08:40:17.307Z,9.95
2019-05-26T08:42:45.238Z,10.28
2019-05-26T08:45:12.624Z,11.15
2019-05-26T08:47:40.030Z,11.20
2019-05-26T08:50:07.458Z,9.60
2019-05-26T08:52:34.680Z,9.08
2019-05-26T08:55:01.980Z,9.83
2019-05-26T08:57:29.272Z,9.85
2019-05-26T08:59:56.609Z,10.82
2019-05-26T09:02:24.164Z,9.68
2019-05-26T09:04:51.557Z,9.35
2019-05-26T09:07:18.824Z,8.58
2019-05-26T09:09:46.145Z,10.03
2019-05-26T09:12:13.465Z,9.00
2019-05-26T09:14:40.988Z,8.48
2019-05-26T09:17:08.271Z,8.03
2019-05-26T09:19:35.604Z,8.88
2019-05-26T09:22:02.879Z,8.35
2019-05-26T09:24:30.141Z,8.58
2019-05-26T09:26:57.412Z,8.93
2019-05-26T09:29:24.736Z,7.80
2019-05-26T09:31:52.029Z,8.05
2019-05-26T09:34:19.562Z,9.28
2019-05-26T09:36:46.948Z,9.40
2019-05-26T09:39:14.216Z,8.70
2019-05-26T09:41:41.484Z,9.43
2019-05-26T09:44:08.751Z,7.85
2019-05-26T09:46:36.047Z,7.87
2019-05-26T09:49:03.299Z,8.50
2019-05-26T09:51:31.351Z,7.70
2019-05-26T09:54:01.714Z,7.85
2019-05-26T09:56:28.146Z,5.97
2019-05-26T09:58:55.452Z,7.12
2019-05-26T10:01:22.894Z,6.37
2019-05-26T10:03:50.253Z,6.92
2019-05-26T10:06:17.540Z,6.62
2019-05-26T10:08:44.799Z,6.97
2019-05-26T10:11:12.213Z,7.10
2019-05-26T10:13:39.498Z,6.53
2019-05-26T10:16:06.797Z,7.75
2019-05-26T10:18:34.136Z,6.75
2019-05-26T10:21:01.341Z,6.55
2019-05-26T10:23:28.682Z,7.92
2019-05-26T10:25:56.000Z,7.40
2019-05-26T10:28:23.336Z,6.70
2019-05-26T10:30:50.794Z,7.70
2019-05-26T10:33:18.100Z,7.45
2019-05-26T10:35:45.385Z,6.95
2019-05-26T10:38:12.784Z,7.58
2019-05-26T10:40:40.056Z,7.10
2019-05-26T10:43:07.589Z,8.13
2019-05-26T10:45:34.924Z,7.58
2019-05-26T10:48:02.288Z,6.75
2019-05-26T10:50:29.821Z,7.12
2019-05-26T10:52:57.145Z,6.53
2019-05-26T10:55:24.429Z,6.00
2019-05-26T10:57:51.723Z,5.72
2019-05-26T11:00:19.448Z,5.28
2019-05-26T11:02:46.892Z,6.37
2019-05-26T11:05:15.393Z,6.22
2019-05-26T11:07:42.773Z,6.80
2019-05-26T11:10:10.287Z,7.03
2019-05-26T11:12:37.829Z,5.22
2019-05-26T11:15:05.550Z,4.85
2019-05-26T11:17:33.196Z,6.03
2019-05-26T11:20:00.490Z,6.30
2019-05-26T11:22:27.871Z,6.15
2019-05-26T11:24:55.144Z,5.97
2019-05-26T11:27:22.480Z,5.55
2019-05-26T11:29:49.741Z,4.28
2019-05-26T11:32:16.988Z,4.55
2019-05-26T11:34:44.318Z,4.15
2019-05-26T11:37:11.924Z,4.87
2019-05-26T11:39:39.184Z,5.87
2019-05-26T11:42:13.395Z,4.53
2019-05-26T11:44:35.632Z,4.80
2019-05-26T11:47:02.967Z,4.53
2019-05-26T11:49:30.325Z,4.08
2019-05-26T11:51:57.525Z,3.83
2019-05-26T11:54:24.857Z,3.70
2019-05-26T11:56:52.119Z,3.70
2019-05-26T11:59:19.439Z,3.17
2019-05-26T12:01:46.689Z,3.12
2019-05-26T12:04:14.320Z,3.35
2019-05-26T12:06:41.585Z,3.95
2019-05-26T12:09:08.715Z,3.45
2019-05-26T12:11:36.083Z,3.62
2019-05-26T12:14:03.702Z,3.47
2019-05-26T12:16:31.016Z,3.80
2019-05-26T12:18:58.310Z,3.30
2019-05-26T12:21:25.602Z,3.00
2019-05-26T12:23:55.040Z,3.10
2019-05-26T12:26:22.342Z,2.83
2019-05-26T12:28:49.793Z,3.17
2019-05-26T12:31:17.024Z,3.27
2019-05-26T12:33:44.350Z,3.08
2019-05-26T12:36:11.653Z,2.80
2019-05-26T12:38:50.016Z,2.80
2019-05-26T12:41:17.959Z,2.98
2019-05-26T12:43:45.247Z,3.10
2019-05-26T12:46:12.527Z,27.22
2019-05-26T12:48:39.748Z,3.65
2019-05-26T12:51:07.098Z,3.50
2019-05-26T12:53:34.519Z,4.33
2019-05-26T12:56:01.932Z,3.65
2019-05-26T12:58:29.363Z,2.95
2019-05-26T13:00:56.722Z,2.75
2019-05-26T13:03:24.025Z,2.85
2019-05-26T13:05:51.324Z,2.50
2019-05-26T13:08:18.652Z,2.30
2019-05-26T13:10:46.084Z,2.08
2019-05-26T13:13:13.370Z,2.20
2019-05-26T13:15:40.672Z,2.12
2019-05-26T13:18:07.969Z,2.05
2019-05-26T13:20:35.244Z,2.25
2019-05-26T13:23:02.560Z,2.20
2019-05-26T13:25:29.814Z,2.40
2019-05-26T13:27:57.040Z,2.08
2019-05-26T13:30:24.726Z,2.00
2019-05-26T13:32:52.030Z,2.30
2019-05-26T13:35:20.014Z,2.20
2019-05-26T13:37:47.088Z,2.20
2019-05-26T13:40:14.880Z,2.05
2019-05-26T13:42:42.106Z,2.02
2019-05-26T13:45:21.818Z,2.20
2019-05-26T13:47:39.560Z,2.35
2019-05-26T13:50:08.410Z,2.10
2019-05-26T13:52:35.625Z,1.90
2019-05-26T13:55:03.502Z,2.27
2019-05-26T13:57:30.810Z,2.17
2019-05-26T13:59:58.377Z,2.05
2019-05-26T14:02:25.505Z,2.22
2019-05-26T14:04:52.833Z,2.10
2019-05-26T14:07:20.190Z,2.30
2019-05-26T14:09:47.470Z,1.90
2019-05-26T14:12:14.737Z,2.33
2019-05-26T14:14:42.043Z,1.92
2019-05-26T14:17:09.795Z,1.98
2019-05-26T14:19:38.201Z,1.80
2019-05-26T14:22:05.757Z,1.80
2019-05-26T14:24:33.094Z,1.70
2019-05-26T14:27:00.349Z,1.62
2019-05-26T14:29:27.649Z,1.60
2019-05-26T14:31:54.934Z,1.42
2019-05-26T14:34:22.205Z,1.60
2019-05-26T14:36:49.713Z,1.60
2019-05-26T14:39:17.163Z,1.67
2019-05-26T14:41:44.405Z,1.77
2019-05-26T14:44:11.698Z,1.60
2019-05-26T14:46:38.949Z,2.05
2019-05-26T14:49:06.268Z,2.22
2019-05-26T14:51:33.478Z,1.80
2019-05-26T14:54:00.778Z,2.10
2019-05-26T14:56:27.877Z,2.08
2019-05-26T14:58:55.093Z,2.47
2019-05-26T15:01:22.481Z,2.35
2019-05-26T15:03:49.643Z,2.27
2019-05-26T15:06:16.943Z,2.17
2019-05-26T15:08:44.321Z,2.40
2019-05-26T15:11:11.576Z,2.42
2019-05-26T15:13:38.831Z,2.52
2019-05-26T15:16:10.247Z,2.17
2019-05-26T15:18:35.297Z,2.30
2019-05-26T15:21:02.705Z,2.33
2019-05-26T15:23:30.013Z,2.05
2019-05-26T15:25:57.343Z,2.35
2019-05-26T15:28:24.707Z,2.58
2019-05-26T15:30:51.996Z,2.20
2019-05-26T15:33:19.294Z,2.37
2019-05-26T15:35:46.565Z,2.17
2019-05-26T15:38:13.945Z,2.00
2019-05-26T15:40:41.201Z,1.70
2019-05-26T15:43:08.491Z,1.82
2019-05-26T15:45:35.799Z,2.10
2019-05-26T15:48:03.092Z,1.90
2019-05-26T15:50:30.378Z,2.10
2019-05-26T15:52:57.637Z,1.98
2019-05-26T15:55:24.957Z,2.10
2019-05-26T15:57:52.066Z,1.60
2019-05-26T16:00:19.321Z,1.67
2019-05-26T16:02:46.622Z,1.52
2019-05-26T16:05:14.217Z,1.77
2019-05-26T16:07:41.267Z,1.90
2019-05-26T16:10:08.899Z,1.75
2019-05-26T16:12:36.053Z,1.90
2019-05-26T16:15:03.906Z,1.80
2019-05-26T16:17:31.048Z,1.90
2019-05-26T16:19:58.321Z,1.62
2019-05-26T16:22:25.418Z,1.70
2019-05-26T16:24:52.514Z,1.70
2019-05-26T16:27:20.068Z,1.90
2019-05-26T16:29:47.427Z,1.50
2019-05-26T16:32:14.704Z,1.82
2019-05-26T16:34:42.041Z,1.60
2019-05-26T16:37:09.308Z,1.42
2019-05-26T16:39:37.536Z,1.50
2019-05-26T16:42:04.996Z,1.50
2019-05-26T16:44:32.282Z,1.67
2019-05-26T16:46:59.593Z,1.70
2019-05-26T16:49:26.855Z,1.72
2019-05-26T16:51:54.154Z,1.82
2019-05-26T16:54:21.464Z,1.67
2019-05-26T16:56:48.708Z,1.95
2019-05-26T16:59:16.233Z,1.82
2019-05-26T17:01:43.573Z,1.80
2019-05-26T17:04:10.943Z,1.75
2019-05-26T17:06:38.070Z,1.62
2019-05-26T17:09:07.114Z,1.85
2019-05-26T17:11:34.413Z,1.50
2019-05-26T17:14:01.700Z,1.60
2019-05-26T17:16:28.981Z,1.40
2019-05-26T17:18:56.303Z,1.70
2019-05-26T17:21:23.649Z,2.60
2019-05-26T17:23:51.033Z,1.67
2019-05-26T17:26:18.341Z,3.08
2019-05-26T17:28:45.612Z,1.87
2019-05-26T17:31:13.120Z,1.72
2019-05-26T17:33:40.528Z,1.57
2019-05-26T17:36:07.809Z,1.50
2019-05-26T17:38:35.096Z,1.80
2019-05-26T17:41:02.302Z,1.40
2019-05-26T17:43:29.569Z,1.60
2019-05-26T17:45:56.837Z,1.67
2019-05-26T17:48:24.130Z,1.80
2019-05-26T17:50:51.361Z,1.60
2019-05-26T17:53:18.672Z,1.72
2019-05-26T17:55:45.826Z,1.35
2019-05-26T17:58:13.045Z,1.47
2019-05-26T18:00:40.625Z,1.60
2019-05-26T18:03:07.834Z,1.45
2019-05-26T18:05:35.050Z,1.60
2019-05-26T18:08:02.356Z,1.70
2019-05-26T18:10:29.726Z,1.50
2019-05-26T18:12:57.077Z,1.52
2019-05-26T18:15:24.501Z,1.50
2019-05-26T18:17:51.804Z,1.45
2019-05-26T18:20:19.284Z,1.50
2019-05-26T18:22:46.686Z,1.37
2019-05-26T18:25:14.273Z,1.55
2019-05-26T18:27:41.834Z,1.75
2019-05-26T18:30:09.346Z,1.52
2019-05-26T18:32:36.463Z,1.60
2019-05-26T18:35:04.450Z,1.80
2019-05-26T18:37:31.745Z,1.37
2019-05-26T18:39:59.033Z,1.50
2019-05-26T18:42:26.398Z,1.57
2019-05-26T18:44:53.713Z,1.50
2019-05-26T18:47:20.965Z,1.37
2019-05-26T18:49:48.306Z,1.60
2019-05-26T18:52:15.500Z,1.60
2019-05-26T18:54:42.793Z,1.45
2019-05-26T18:57:10.087Z,1.52
2019-05-26T18:59:37.401Z,1.50
2019-05-26T19:02:04.756Z,1.50
2019-05-26T19:04:32.053Z,1.32
2019-05-26T19:06:59.345Z,1.40
2019-05-26T19:09:26.646Z,1.50
2019-05-26T19:11:53.945Z,1.35
2019-05-26T19:14:21.512Z,1.35
2019-05-26T19:16:48.881Z,1.45
2019-05-26T19:19:16.204Z,1.70
2019-05-26T19:21:43.492Z,1.70
2019-05-26T19:24:10.771Z,1.60
2019-05-26T19:26:38.324Z,1.45
2019-05-26T19:29:05.676Z,1.80
2019-05-26T19:31:32.951Z,1.45
2019-05-26T19:34:00.307Z,1.75
2019-05-26T19:36:27.557Z,1.70
2019-05-26T19:38:54.886Z,2.27
2019-05-26T19:41:22.207Z,2.15
2019-05-26T19:43:49.617Z,1.90
2019-05-26T19:46:16.915Z,1.67
2019-05-26T19:48:44.180Z,2.40
2019-05-26T19:51:11.507Z,1.60
2019-05-26T19:53:38.864Z,1.80
2019-05-26T19:56:06.146Z,1.80
2019-05-26T19:58:33.400Z,2.08
2019-05-26T20:01:00.721Z,2.20
2019-05-26T20:03:28.245Z,2.17
2019-05-26T20:05:55.980Z,2.00
2019-05-26T20:08:23.304Z,1.98
2019-05-26T20:10:50.646Z,1.85
2019-05-26T20:13:17.944Z,1.70
2019-05-26T20:15:45.472Z,1.80
2019-05-26T20:18:13.296Z,2.08
2019-05-26T20:20:40.661Z,1.98
2019-05-26T20:23:07.957Z,2.05
2019-05-26T20:25:35.304Z,2.10
2019-05-26T20:28:02.561Z,1.95
2019-05-26T20:30:29.829Z,2.05
2019-05-26T20:32:57.105Z,2.25
2019-05-26T20:35:24.405Z,2.27
2019-05-26T20:37:51.729Z,2.22
2019-05-26T20:40:19.012Z,3.70
2019-05-26T20:42:46.290Z,5.37
2019-05-26T20:45:14.154Z,5.53
2019-05-26T20:47:41.494Z,5.50
2019-05-26T20:50:09.189Z,6.28
2019-05-26T20:52:36.737Z,5.97
2019-05-26T20:55:04.233Z,6.00
2019-05-26T20:57:31.582Z,3.90
2019-05-26T20:59:58.932Z,3.77
2019-05-26T21:02:26.301Z,2.90
2019-05-26T21:04:53.609Z,2.55
2019-05-26T21:07:20.900Z,3.15
2019-05-26T21:09:48.509Z,2.92
2019-05-26T21:12:15.789Z,3.90
2019-05-26T21:14:43.073Z,4.30
2019-05-26T21:17:10.433Z,2.50
2019-05-26T21:19:37.748Z,3.25
2019-05-26T21:22:05.025Z,2.90
2019-05-26T21:24:32.328Z,3.65
2019-05-26T21:26:59.698Z,3.55
2019-05-26T21:29:27.001Z,2.12
2019-05-26T21:31:54.345Z,2.10
2019-05-26T21:34:21.673Z,2.10
2019-05-26T21:36:48.960Z,2.25
2019-05-26T21:39:16.249Z,3.42
2019-05-26T21:41:43.552Z,3.37
2019-05-26T21:44:11.002Z,2.60
2019-05-26T21:46:38.486Z,2.12
2019-05-26T21:49:05.802Z,2.42
2019-05-26T21:51:33.049Z,2.40
2019-05-26T21:54:00.456Z,2.50
2019-05-26T21:56:27.757Z,2.70
2019-05-26T21:58:55.009Z,3.00
2019-05-26T22:01:22.300Z,2.72
2019-05-26T22:03:49.574Z,2.40
2019-05-26T22:06:19.961Z,2.70
2019-05-26T22:08:46.258Z,2.50
2019-05-26T22:11:13.616Z,3.30
2019-05-26T22:13:40.889Z,2.52
2019-05-26T22:16:08.165Z,2.98
2019-05-26T22:18:35.427Z,2.77
2019-05-26T22:21:02.733Z,3.10
2019-05-26T22:23:30.094Z,2.72
2019-05-26T22:25:57.444Z,2.85
2019-05-26T22:28:24.710Z,2.92
2019-05-26T22:30:52.295Z,2.83
2019-05-26T22:33:19.597Z,2.90
2019-05-26T22:35:46.876Z,3.02
2019-05-26T22:38:14.141Z,2.40
2019-05-26T22:40:41.412Z,2.83
2019-05-26T22:43:08.670Z,2.52
2019-05-26T22:45:35.917Z,3.10
2019-05-26T22:48:03.241Z,2.90
2019-05-26T22:50:30.517Z,2.72
2019-05-26T22:52:57.815Z,2.90
2019-05-26T22:55:25.086Z,3.22
2019-05-26T22:57:52.330Z,2.72
2019-05-26T23:00:19.709Z,3.10
2019-05-26T23:02:46.988Z,2.55
2019-05-26T23:05:14.314Z,2.92
2019-05-26T23:07:41.594Z,2.85
2019-05-26T23:10:10.389Z,2.72
2019-05-26T23:12:37.668Z,2.70
2019-05-26T23:15:05.274Z,2.60
2019-05-26T23:17:32.509Z,2.90
2019-05-26T23:19:59.785Z,2.75
2019-05-26T23:22:27.809Z,2.62
2019-05-26T23:24:55.165Z,2.98
2019-05-26T23:27:22.497Z,2.70
2019-05-26T23:29:49.784Z,3.58
2019-05-26T23:32:17.018Z,2.87
2019-05-26T23:34:44.305Z,2.85
2019-05-26T23:37:11.584Z,2.77
2019-05-26T23:39:38.861Z,2.75
2019-05-26T23:42:06.249Z,3.12
2019-05-26T23:44:33.528Z,3.10
2019-05-26T23:47:00.751Z,2.90
2019-05-26T23:49:28.281Z,3.45
2019-05-26T23:51:55.547Z,3.60
2019-05-26T23:54:22.859Z,3.35
2019-05-26T23:56:50.129Z,3.80
2019-05-26T23:59:17.393Z,3.52
